createdAt,value
2018-03-04T00:00:29.539Z,26.45
2018-03-04T00:01:01.545Z,26.26
2018-03-04T00:01:33.567Z,26.45
2018-03-04T00:02:05.565Z,26.74
2018-03-04T00:02:37.558Z,26.45
2018-03-04T00:03:09.558Z,26.45
2018-03-04T00:03:41.614Z,26.45
2018-03-04T00:04:13.643Z,26.45
2018-03-04T00:04:45.647Z,26.55
2018-03-04T00:05:17.645Z,26.35
2018-03-04T00:05:49.721Z,26.55
2018-03-04T00:06:21.759Z,26.45
2018-03-04T00:06:53.797Z,26.55
2018-03-04T00:07:25.834Z,26.17
2018-03-04T00:07:57.850Z,26.55
2018-03-04T00:08:29.889Z,26.64
2018-03-04T00:09:01.884Z,26.55
2018-03-04T00:09:33.937Z,26.64
2018-03-04T00:10:05.962Z,26.17
2018-03-04T00:10:37.987Z,26.17
2018-03-04T00:11:10.500Z,26.55
2018-03-04T00:11:42.534Z,26.07
2018-03-04T00:12:14.560Z,26.64
2018-03-04T00:12:46.617Z,26.26
2018-03-04T00:13:18.651Z,26.64
2018-03-04T00:13:50.704Z,26.64
2018-03-04T00:14:22.734Z,26.17
2018-03-04T00:14:54.894Z,26.64
2018-03-04T00:15:26.921Z,26.64
2018-03-04T00:15:58.942Z,26.64
2018-03-04T00:16:30.970Z,26.64
2018-03-04T00:17:02.950Z,26.55
2018-03-04T00:17:34.945Z,26.64
2018-03-04T00:18:06.984Z,26.45
2018-03-04T00:18:38.982Z,26.45
2018-03-04T00:19:11.015Z,26.55
2018-03-04T00:19:43.022Z,26.45
2018-03-04T00:20:15.127Z,26.45
2018-03-04T00:20:47.115Z,26.45
2018-03-04T00:21:19.103Z,26.45
2018-03-04T00:21:51.051Z,26.45
2018-03-04T00:22:23.075Z,26.45
2018-03-04T00:22:55.142Z,26.55
2018-03-04T00:23:27.155Z,26.55
2018-03-04T00:23:59.205Z,26.55
2018-03-04T00:24:31.249Z,26.55
2018-03-04T00:25:03.260Z,26.35
2018-03-04T00:25:35.273Z,26.64
2018-03-04T00:26:07.274Z,26.55
2018-03-04T00:26:39.276Z,26.55
2018-03-04T00:27:11.297Z,26.64
2018-03-04T00:27:43.380Z,26.74
2018-03-04T00:28:15.427Z,26.64
2018-03-04T00:28:47.437Z,26.64
2018-03-04T00:29:19.473Z,26.64
2018-03-04T00:29:51.594Z,26.45
2018-03-04T00:30:23.585Z,26.35
2018-03-04T00:30:55.596Z,26.64
2018-03-04T00:31:27.711Z,26.74
2018-03-04T00:31:59.721Z,26.64
2018-03-04T00:32:31.700Z,26.64
2018-03-04T00:33:03.750Z,26.35
2018-03-04T00:33:35.836Z,26.35
2018-03-04T00:34:07.868Z,26.64
2018-03-04T00:34:39.895Z,26.64
2018-03-04T00:35:11.943Z,26.64
2018-03-04T00:35:43.952Z,26.64
2018-03-04T00:36:15.979Z,26.74
2018-03-04T00:36:48.015Z,26.35
2018-03-04T00:37:20.005Z,26.74
2018-03-04T00:37:52.057Z,26.64
2018-03-04T00:38:24.125Z,26.45
2018-03-04T00:38:56.205Z,26.45
2018-03-04T00:39:28.212Z,26.45
2018-03-04T00:40:00.299Z,26.84
2018-03-04T00:40:32.381Z,26.45
2018-03-04T00:41:04.408Z,26.84
2018-03-04T00:41:36.398Z,26.74
2018-03-04T00:42:08.558Z,26.55
2018-03-04T00:42:40.717Z,26.84
2018-03-04T00:43:12.742Z,26.55
2018-03-04T00:43:44.749Z,26.84
2018-03-04T00:44:16.778Z,26.84
2018-03-04T00:44:48.766Z,26.93
2018-03-04T00:45:20.793Z,26.74
2018-03-04T00:45:52.842Z,26.64
2018-03-04T00:46:25.394Z,26.93
2018-03-04T00:46:57.439Z,26.84
2018-03-04T00:47:29.489Z,26.93
2018-03-04T00:48:01.557Z,26.84
2018-03-04T00:48:33.553Z,26.74
2018-03-04T00:49:05.599Z,26.74
2018-03-04T00:49:37.645Z,26.55
2018-03-04T00:50:09.684Z,26.93
2018-03-04T00:50:41.674Z,26.74
2018-03-04T00:51:13.669Z,27.03
2018-03-04T00:51:45.681Z,26.64
2018-03-04T00:52:17.720Z,26.64
2018-03-04T00:52:49.692Z,26.55
2018-03-04T00:53:21.735Z,26.64
2018-03-04T00:53:53.752Z,26.84
2018-03-04T00:54:25.789Z,26.74
2018-03-04T00:54:57.754Z,26.84
2018-03-04T00:55:29.787Z,26.74
2018-03-04T00:56:01.837Z,26.84
2018-03-04T00:56:33.877Z,26.74
2018-03-04T00:57:05.889Z,26.64
2018-03-04T00:57:38.000Z,27.03
2018-03-04T00:58:10.030Z,26.74
2018-03-04T00:58:42.050Z,26.84
2018-03-04T00:59:14.108Z,26.84
2018-03-04T00:59:46.130Z,26.74
2018-03-04T01:00:18.267Z,26.84
2018-03-04T01:00:50.280Z,26.74
2018-03-04T01:01:22.326Z,26.74
2018-03-04T01:01:54.442Z,26.74
2018-03-04T01:02:26.471Z,26.64
2018-03-04T01:02:58.492Z,26.74
2018-03-04T01:03:30.537Z,26.74
2018-03-04T01:04:02.559Z,26.93
2018-03-04T01:04:34.604Z,26.74
2018-03-04T01:05:06.626Z,26.74
2018-03-04T01:05:38.649Z,26.74
2018-03-04T01:06:10.625Z,26.64
2018-03-04T01:06:42.626Z,26.74
2018-03-04T01:07:14.595Z,26.64
2018-03-04T01:07:46.634Z,26.74
2018-03-04T01:08:18.610Z,26.64
2018-03-04T01:08:50.624Z,26.74
2018-03-04T01:09:22.662Z,26.74
2018-03-04T01:09:54.655Z,26.74
2018-03-04T01:10:26.677Z,26.74
2018-03-04T01:10:58.703Z,26.84
2018-03-04T01:11:30.748Z,26.74
2018-03-04T01:12:02.810Z,26.84
2018-03-04T01:12:34.834Z,26.84
2018-03-04T01:13:06.882Z,26.74
2018-03-04T01:13:38.870Z,26.74
2018-03-04T01:14:10.913Z,26.84
2018-03-04T01:14:43.035Z,26.74
2018-03-04T01:15:14.980Z,26.84
2018-03-04T01:15:47.000Z,26.64
2018-03-04T01:16:19.042Z,26.84
2018-03-04T01:16:51.812Z,26.74
2018-03-04T01:17:23.939Z,26.64
2018-03-04T01:17:55.982Z,26.64
2018-03-04T01:18:27.991Z,26.74
2018-03-04T01:18:59.993Z,26.84
2018-03-04T01:19:31.974Z,26.64
2018-03-04T01:20:04.000Z,26.84
2018-03-04T01:20:36.000Z,26.64
2018-03-04T01:21:08.015Z,27.03
2018-03-04T01:21:40.058Z,26.93
2018-03-04T01:22:12.117Z,27.03
2018-03-04T01:22:45.149Z,26.93
2018-03-04T01:23:17.194Z,26.93
2018-03-04T01:23:49.223Z,26.93
2018-03-04T01:24:21.325Z,26.84
2018-03-04T01:24:53.354Z,27.03
2018-03-04T01:25:25.346Z,26.55
2018-03-04T01:25:57.356Z,26.93
2018-03-04T01:26:29.530Z,27.03
2018-03-04T01:27:01.539Z,26.93
2018-03-04T01:27:33.557Z,26.45
2018-03-04T01:28:05.574Z,27.03
2018-03-04T01:28:37.585Z,26.64
2018-03-04T01:29:09.615Z,26.64
2018-03-04T01:29:41.635Z,26.45
2018-03-04T01:30:13.617Z,27.03
2018-03-04T01:30:45.620Z,26.93
2018-03-04T01:31:17.632Z,26.55
2018-03-04T01:31:49.632Z,26.93
2018-03-04T01:32:21.661Z,27.03
2018-03-04T01:32:53.731Z,26.55
2018-03-04T01:33:25.770Z,26.55
2018-03-04T01:33:57.797Z,26.93
2018-03-04T01:34:29.815Z,27.03
2018-03-04T01:35:01.853Z,27.03
2018-03-04T01:35:33.864Z,27.12
2018-03-04T01:36:05.868Z,26.45
2018-03-04T01:36:37.894Z,26.55
2018-03-04T01:37:09.940Z,26.64
2018-03-04T01:37:42.006Z,26.93
2018-03-04T01:38:14.034Z,26.84
2018-03-04T01:38:46.065Z,27.12
2018-03-04T01:39:18.069Z,27.12
2018-03-04T01:39:50.068Z,26.45
2018-03-04T01:40:22.099Z,27.14
2018-03-04T01:40:54.115Z,26.35
2018-03-04T01:41:26.162Z,27.14
2018-03-04T01:41:58.203Z,27.22
2018-03-04T01:42:30.253Z,27.22
2018-03-04T01:43:02.405Z,27.03
2018-03-04T01:43:34.387Z,26.55
2018-03-04T01:44:06.410Z,26.45
2018-03-04T01:44:38.433Z,26.84
2018-03-04T01:45:10.458Z,27.03
2018-03-04T01:45:42.592Z,26.45
2018-03-04T01:46:14.632Z,26.93
2018-03-04T01:46:46.664Z,27.22
2018-03-04T01:47:18.713Z,26.93
2018-03-04T01:47:50.724Z,26.45
2018-03-04T01:48:22.807Z,26.45
2018-03-04T01:48:54.820Z,26.45
2018-03-04T01:49:26.878Z,26.45
2018-03-04T01:49:58.912Z,26.45
2018-03-04T01:50:30.993Z,27.03
2018-03-04T01:51:03.016Z,27.12
2018-03-04T01:51:35.038Z,27.03
2018-03-04T01:52:07.232Z,27.03
2018-03-04T01:52:39.365Z,26.74
2018-03-04T01:53:11.417Z,27.03
2018-03-04T01:53:43.434Z,27.03
2018-03-04T01:54:15.440Z,26.55
2018-03-04T01:54:47.524Z,26.64
2018-03-04T01:55:19.534Z,26.74
2018-03-04T01:55:51.597Z,26.93
2018-03-04T01:56:23.632Z,26.93
2018-03-04T01:56:55.652Z,26.93
2018-03-04T01:57:27.714Z,26.64
2018-03-04T01:57:59.691Z,27.03
2018-03-04T01:58:31.701Z,27.03
2018-03-04T01:59:03.703Z,26.74
2018-03-04T01:59:35.740Z,27.03
2018-03-04T02:00:07.749Z,27.12
2018-03-04T02:00:39.796Z,27.03
2018-03-04T02:01:11.820Z,27.12
2018-03-04T02:01:43.844Z,27.12
2018-03-04T02:02:15.856Z,27.03
2018-03-04T02:02:47.896Z,27.04
2018-03-04T02:03:19.891Z,26.93
2018-03-04T02:03:51.883Z,26.64
2018-03-04T02:04:23.908Z,27.03
2018-03-04T02:04:55.942Z,26.64
2018-03-04T02:05:27.968Z,26.64
2018-03-04T02:06:00.009Z,27.03
2018-03-04T02:06:32.019Z,27.03
2018-03-04T02:07:04.024Z,26.84
2018-03-04T02:07:36.081Z,26.84
2018-03-04T02:08:08.125Z,27.03
2018-03-04T02:08:40.148Z,26.64
2018-03-04T02:09:12.177Z,27.03
2018-03-04T02:09:44.190Z,26.55
2018-03-04T02:10:16.249Z,27.03
2018-03-04T02:10:48.328Z,26.64
2018-03-04T02:11:20.362Z,27.12
2018-03-04T02:11:52.403Z,27.22
2018-03-04T02:12:24.420Z,26.64
2018-03-04T02:12:56.460Z,27.12
2018-03-04T02:13:28.511Z,27.14
2018-03-04T02:14:00.538Z,27.12
2018-03-04T02:14:32.595Z,27.14
2018-03-04T02:15:04.586Z,26.93
2018-03-04T02:15:36.603Z,26.93
2018-03-04T02:16:09.428Z,27.12
2018-03-04T02:16:41.437Z,27.12
2018-03-04T02:17:13.419Z,26.64
2018-03-04T02:17:45.486Z,26.55
2018-03-04T02:18:17.524Z,27.03
2018-03-04T02:18:49.643Z,26.64
2018-03-04T02:19:21.657Z,27.12
2018-03-04T02:19:53.686Z,27.12
2018-03-04T02:20:25.732Z,27.12
2018-03-04T02:20:57.769Z,26.93
2018-03-04T02:21:29.816Z,27.12
2018-03-04T02:22:01.861Z,26.64
2018-03-04T02:22:33.917Z,26.93
2018-03-04T02:23:05.919Z,26.93
2018-03-04T02:23:37.959Z,27.03
2018-03-04T02:24:09.999Z,26.74
2018-03-04T02:24:42.025Z,26.93
2018-03-04T02:25:14.026Z,26.93
2018-03-04T02:25:46.041Z,26.74
2018-03-04T02:26:18.066Z,27.03
2018-03-04T02:26:50.095Z,26.93
2018-03-04T02:27:22.129Z,26.93
2018-03-04T02:27:54.152Z,27.12
2018-03-04T02:28:26.177Z,27.12
2018-03-04T02:28:58.220Z,27.12
2018-03-04T02:29:30.211Z,27.03
2018-03-04T02:30:02.379Z,27.12
2018-03-04T02:30:34.485Z,27.03
2018-03-04T02:31:06.550Z,27.03
2018-03-04T02:31:38.552Z,27.12
2018-03-04T02:32:10.604Z,26.75
2018-03-04T02:32:42.650Z,27.03
2018-03-04T02:33:14.675Z,26.74
2018-03-04T02:33:46.692Z,26.84
2018-03-04T02:34:18.681Z,27.12
2018-03-04T02:34:50.680Z,26.93
2018-03-04T02:35:22.721Z,26.85
2018-03-04T02:35:54.744Z,26.84
2018-03-04T02:36:26.790Z,27.03
2018-03-04T02:36:58.818Z,27.12
2018-03-04T02:37:30.842Z,27.04
2018-03-04T02:38:02.830Z,27.12
2018-03-04T02:38:34.891Z,26.93
2018-03-04T02:39:06.898Z,27.03
2018-03-04T02:39:38.958Z,27.12
2018-03-04T02:40:11.007Z,27.03
2018-03-04T02:40:43.068Z,27.03
2018-03-04T02:41:15.088Z,27.12
2018-03-04T02:41:47.189Z,27.03
2018-03-04T02:42:19.188Z,27.12
2018-03-04T02:42:51.169Z,27.03
2018-03-04T02:43:23.205Z,27.04
2018-03-04T02:43:55.246Z,26.84
2018-03-04T02:44:27.287Z,27.03
2018-03-04T02:44:59.313Z,27.04
2018-03-04T02:45:31.352Z,26.85
2018-03-04T02:46:03.371Z,27.14
2018-03-04T02:46:35.421Z,26.85
2018-03-04T02:47:07.558Z,27.14
2018-03-04T02:47:39.564Z,27.12
2018-03-04T02:48:11.583Z,27.12
2018-03-04T02:48:43.664Z,27.12
2018-03-04T02:49:15.729Z,27.14
2018-03-04T02:49:47.755Z,26.95
2018-03-04T02:50:19.811Z,26.84
2018-03-04T02:50:51.917Z,26.74
2018-03-04T02:51:23.919Z,26.84
2018-03-04T02:51:55.929Z,27.12
2018-03-04T02:52:27.980Z,27.12
2018-03-04T02:53:00.662Z,27.03
2018-03-04T02:53:32.673Z,27.12
2018-03-04T02:54:04.703Z,27.12
2018-03-04T02:54:36.792Z,27.12
2018-03-04T02:55:08.822Z,27.12
2018-03-04T02:55:40.868Z,26.74
2018-03-04T02:56:12.884Z,26.93
2018-03-04T02:56:44.952Z,26.66
2018-03-04T02:57:16.946Z,26.93
2018-03-04T02:57:48.939Z,26.74
2018-03-04T02:58:20.959Z,27.03
2018-03-04T02:58:52.972Z,26.84
2018-03-04T02:59:25.008Z,27.04
2018-03-04T02:59:57.162Z,26.93
2018-03-04T03:00:29.179Z,27.22
2018-03-04T03:01:01.209Z,27.22
2018-03-04T03:01:33.231Z,26.74
2018-03-04T03:02:05.303Z,27.04
2018-03-04T03:02:37.341Z,26.93
2018-03-04T03:03:09.388Z,26.85
2018-03-04T03:03:41.467Z,26.74
2018-03-04T03:04:13.470Z,26.75
2018-03-04T03:04:45.514Z,26.95
2018-03-04T03:05:17.568Z,27.03
2018-03-04T03:05:49.596Z,26.95
2018-03-04T03:06:21.589Z,27.04
2018-03-04T03:06:53.651Z,26.93
2018-03-04T03:07:26.226Z,27.04
2018-03-04T03:07:58.243Z,27.04
2018-03-04T03:08:30.295Z,27.04
2018-03-04T03:09:02.332Z,27.04
2018-03-04T03:09:34.346Z,27.03
2018-03-04T03:10:06.353Z,26.93
2018-03-04T03:10:38.415Z,27.03
2018-03-04T03:11:10.463Z,27.03
2018-03-04T03:11:42.461Z,27.03
2018-03-04T03:12:14.503Z,27.03
2018-03-04T03:12:46.490Z,27.04
2018-03-04T03:13:18.539Z,27.12
2018-03-04T03:13:50.551Z,27.14
2018-03-04T03:14:22.579Z,27.04
2018-03-04T03:14:54.590Z,27.12
2018-03-04T03:15:26.722Z,27.42
2018-03-04T03:15:58.762Z,27.33
2018-03-04T03:16:30.756Z,26.84
2018-03-04T03:17:02.819Z,27.12
2018-03-04T03:17:34.831Z,27.12
2018-03-04T03:18:07.332Z,26.93
2018-03-04T03:18:39.353Z,27.12
2018-03-04T03:19:11.365Z,27.03
2018-03-04T03:19:43.407Z,27.22
2018-03-04T03:20:15.433Z,27.04
2018-03-04T03:20:47.456Z,27.12
2018-03-04T03:21:19.453Z,27.03
2018-03-04T03:21:51.454Z,26.85
2018-03-04T03:22:23.538Z,27.33
2018-03-04T03:22:55.603Z,27.14
2018-03-04T03:23:27.619Z,27.04
2018-03-04T03:23:59.633Z,27.14
2018-03-04T03:24:31.633Z,27.03
2018-03-04T03:25:03.631Z,27.03
2018-03-04T03:25:35.667Z,27.03
2018-03-04T03:26:07.720Z,27.22
2018-03-04T03:26:39.756Z,27.04
2018-03-04T03:27:11.774Z,27.04
2018-03-04T03:27:43.832Z,27.12
2018-03-04T03:28:15.857Z,27.14
2018-03-04T03:28:47.848Z,27.22
2018-03-04T03:29:20.649Z,27.03
2018-03-04T03:29:52.618Z,27.12
2018-03-04T03:30:24.631Z,27.31
2018-03-04T03:30:56.692Z,27.03
2018-03-04T03:31:28.697Z,27.22
2018-03-04T03:32:00.715Z,27.23
2018-03-04T03:32:32.707Z,27.23
2018-03-04T03:33:04.844Z,27.04
2018-03-04T03:33:36.822Z,27.22
2018-03-04T03:34:08.818Z,27.22
2018-03-04T03:34:40.805Z,27.12
2018-03-04T03:35:12.805Z,27.22
2018-03-04T03:35:44.842Z,27.03
2018-03-04T03:36:16.865Z,27.12
2018-03-04T03:36:48.918Z,27.03
2018-03-04T03:37:20.940Z,27.23
2018-03-04T03:37:52.988Z,27.14
2018-03-04T03:38:25.022Z,27.03
2018-03-04T03:38:57.042Z,27.03
2018-03-04T03:39:29.094Z,26.93
2018-03-04T03:40:01.106Z,27.23
2018-03-04T03:40:33.150Z,27.23
2018-03-04T03:41:05.193Z,27.41
2018-03-04T03:41:37.200Z,27.03
2018-03-04T03:42:09.206Z,26.75
2018-03-04T03:42:41.287Z,27.12
2018-03-04T03:43:13.328Z,27.14
2018-03-04T03:43:45.361Z,27.22
2018-03-04T03:44:17.382Z,27.33
2018-03-04T03:44:49.431Z,27.23
2018-03-04T03:45:21.454Z,27.14
2018-03-04T03:45:53.499Z,27.12
2018-03-04T03:46:26.260Z,26.95
2018-03-04T03:46:58.264Z,27.22
2018-03-04T03:47:30.356Z,27.22
2018-03-04T03:48:02.349Z,27.03
2018-03-04T03:48:34.394Z,27.12
2018-03-04T03:49:06.408Z,27.12
2018-03-04T03:49:38.425Z,27.03
2018-03-04T03:50:10.467Z,27.31
2018-03-04T03:50:42.519Z,27.04
2018-03-04T03:51:14.554Z,26.95
2018-03-04T03:51:46.607Z,27.42
2018-03-04T03:52:18.620Z,27.31
2018-03-04T03:52:50.716Z,27.04
2018-03-04T03:53:22.721Z,27.12
2018-03-04T03:53:54.770Z,27.14
2018-03-04T03:54:26.797Z,27.04
2018-03-04T03:54:59.015Z,27.14
2018-03-04T03:55:31.126Z,27.22
2018-03-04T03:56:03.142Z,27.04
2018-03-04T03:56:35.178Z,27.22
2018-03-04T03:57:07.397Z,27.23
2018-03-04T03:57:39.531Z,27.14
2018-03-04T03:58:11.688Z,27.12
2018-03-04T03:58:43.733Z,27.12
2018-03-04T03:59:15.788Z,27.23
2018-03-04T03:59:47.840Z,27.23
2018-03-04T04:00:19.910Z,27.23
2018-03-04T04:00:51.939Z,27.23
2018-03-04T04:01:23.983Z,27.41
2018-03-04T04:01:56.000Z,27.23
2018-03-04T04:02:28.036Z,27.22
2018-03-04T04:03:00.052Z,27.23
2018-03-04T04:03:32.063Z,27.14
2018-03-04T04:04:04.081Z,27.23
2018-03-04T04:04:36.119Z,27.14
2018-03-04T04:05:08.132Z,27.12
2018-03-04T04:05:40.222Z,27.23
2018-03-04T04:06:12.254Z,27.31
2018-03-04T04:06:44.290Z,27.23
2018-03-04T04:07:16.309Z,27.12
2018-03-04T04:07:48.336Z,27.23
2018-03-04T04:08:20.360Z,27.12
2018-03-04T04:08:52.407Z,27.12
2018-03-04T04:09:24.435Z,27.12
2018-03-04T04:09:56.416Z,27.23
2018-03-04T04:10:28.454Z,27.23
2018-03-04T04:11:00.480Z,27.04
2018-03-04T04:11:32.534Z,27.23
2018-03-04T04:12:04.579Z,27.31
2018-03-04T04:12:36.615Z,27.31
2018-03-04T04:13:08.639Z,27.33
2018-03-04T04:13:40.739Z,27.12
2018-03-04T04:14:12.786Z,27.31
2018-03-04T04:14:44.808Z,27.22
2018-03-04T04:15:16.843Z,26.93
2018-03-04T04:15:48.861Z,27.22
2018-03-04T04:16:20.857Z,27.33
2018-03-04T04:16:52.902Z,27.33
2018-03-04T04:17:24.945Z,26.95
2018-03-04T04:17:57.002Z,27.14
2018-03-04T04:18:29.048Z,27.22
2018-03-04T04:19:01.074Z,27.33
2018-03-04T04:19:33.101Z,27.42
2018-03-04T04:20:05.094Z,27.42
2018-03-04T04:20:37.119Z,27.23
2018-03-04T04:21:09.161Z,27.52
2018-03-04T04:21:41.182Z,27.14
2018-03-04T04:22:13.207Z,27.31
2018-03-04T04:22:45.288Z,27.22
2018-03-04T04:23:17.288Z,27.33
2018-03-04T04:23:49.316Z,27.23
2018-03-04T04:24:21.885Z,27.33
2018-03-04T04:24:53.912Z,27.22
2018-03-04T04:25:25.912Z,27.5
2018-03-04T04:25:57.925Z,27.42
2018-03-04T04:26:30.038Z,27.14
2018-03-04T04:27:02.048Z,27.33
2018-03-04T04:27:34.088Z,27.31
2018-03-04T04:28:06.140Z,27.41
2018-03-04T04:28:38.151Z,27.12
2018-03-04T04:29:10.178Z,27.31
2018-03-04T04:29:42.232Z,27.33
2018-03-04T04:30:14.442Z,27.42
2018-03-04T04:30:46.455Z,27.23
2018-03-04T04:31:18.463Z,27.04
2018-03-04T04:31:50.593Z,27.52
2018-03-04T04:32:22.716Z,27.31
2018-03-04T04:32:54.747Z,27.31
2018-03-04T04:33:26.790Z,27.71
2018-03-04T04:33:58.836Z,27.33
2018-03-04T04:34:30.856Z,27.23
2018-03-04T04:35:02.898Z,27.33
2018-03-04T04:35:34.946Z,27.41
2018-03-04T04:36:07.089Z,27.33
2018-03-04T04:36:39.151Z,27.5
2018-03-04T04:37:11.184Z,27.03
2018-03-04T04:37:43.186Z,27.33
2018-03-04T04:38:15.237Z,27.03
2018-03-04T04:38:47.252Z,27.31
2018-03-04T04:39:19.232Z,27.12
2018-03-04T04:39:51.265Z,27.33
2018-03-04T04:40:23.280Z,27.33
2018-03-04T04:40:55.304Z,27.33
2018-03-04T04:41:27.298Z,27.23
2018-03-04T04:41:59.327Z,27.41
2018-03-04T04:42:31.358Z,27.03
2018-03-04T04:43:03.396Z,27.12
2018-03-04T04:43:35.447Z,27.31
2018-03-04T04:44:07.493Z,27.52
2018-03-04T04:44:39.533Z,27.33
2018-03-04T04:45:11.588Z,27.33
2018-03-04T04:45:43.590Z,27.12
2018-03-04T04:46:15.637Z,27.22
2018-03-04T04:46:47.657Z,27.41
2018-03-04T04:47:19.659Z,27.31
2018-03-04T04:47:51.685Z,27.61
2018-03-04T04:48:23.754Z,27.03
2018-03-04T04:48:55.747Z,27.14
2018-03-04T04:49:27.780Z,27.14
2018-03-04T04:49:59.779Z,27.22
2018-03-04T04:50:31.832Z,27.14
2018-03-04T04:51:03.872Z,27.22
2018-03-04T04:51:36.674Z,27.6
2018-03-04T04:52:08.739Z,27.03
2018-03-04T04:52:40.797Z,27.14
2018-03-04T04:53:12.821Z,27.33
2018-03-04T04:53:44.873Z,27.22
2018-03-04T04:54:16.896Z,27.31
2018-03-04T04:54:48.860Z,27.23
2018-03-04T04:55:20.938Z,27.22
2018-03-04T04:55:53.078Z,27.23
2018-03-04T04:56:25.118Z,27.14
2018-03-04T04:56:57.150Z,27.04
2018-03-04T04:57:29.209Z,27.23
2018-03-04T04:58:01.240Z,27.7
2018-03-04T04:58:33.374Z,27.71
2018-03-04T04:59:05.415Z,27.31
2018-03-04T04:59:37.450Z,27.33
2018-03-04T05:00:09.554Z,26.95
2018-03-04T05:00:41.570Z,27.7
2018-03-04T05:01:13.617Z,27.03
2018-03-04T05:01:45.659Z,27.41
2018-03-04T05:02:17.732Z,27.12
2018-03-04T05:02:49.964Z,27.04
2018-03-04T05:03:22.009Z,27.22
2018-03-04T05:03:54.037Z,27.33
2018-03-04T05:04:26.058Z,27.31
2018-03-04T05:04:58.099Z,27.12
2018-03-04T05:05:30.156Z,27.61
2018-03-04T05:06:02.308Z,27.31
2018-03-04T05:06:34.353Z,27.22
2018-03-04T05:07:06.384Z,27.41
2018-03-04T05:07:38.406Z,27.6
2018-03-04T05:08:10.442Z,27.12
2018-03-04T05:08:42.531Z,27.31
2018-03-04T05:09:14.565Z,27.7
2018-03-04T05:09:46.629Z,27.42
2018-03-04T05:10:18.626Z,27.31
2018-03-04T05:10:50.662Z,27.33
2018-03-04T05:11:22.659Z,27.5
2018-03-04T05:11:54.688Z,27.23
2018-03-04T05:12:26.684Z,27.22
2018-03-04T05:12:58.710Z,27.33
2018-03-04T05:13:31.616Z,27.22
2018-03-04T05:14:03.627Z,27.31
2018-03-04T05:14:35.659Z,27.33
2018-03-04T05:15:07.738Z,27.31
2018-03-04T05:15:39.771Z,27.14
2018-03-04T05:16:11.782Z,27.23
2018-03-04T05:16:43.814Z,27.31
2018-03-04T05:17:15.829Z,27.12
2018-03-04T05:17:47.809Z,27.14
2018-03-04T05:18:19.845Z,27.22
2018-03-04T05:18:51.854Z,27.42
2018-03-04T05:19:23.874Z,27.31
2018-03-04T05:19:55.917Z,27.14
2018-03-04T05:20:27.932Z,27.33
2018-03-04T05:20:59.965Z,27.42
2018-03-04T05:21:31.988Z,27.33
2018-03-04T05:22:04.013Z,27.33
2018-03-04T05:22:36.062Z,27.14
2018-03-04T05:23:08.213Z,27.23
2018-03-04T05:23:40.239Z,27.33
2018-03-04T05:24:12.254Z,27.22
2018-03-04T05:24:44.278Z,27.33
2018-03-04T05:25:16.306Z,27.22
2018-03-04T05:25:48.321Z,27.22
2018-03-04T05:26:20.307Z,27.33
2018-03-04T05:26:52.372Z,27.33
2018-03-04T05:27:24.384Z,27.33
2018-03-04T05:27:56.375Z,27.23
2018-03-04T05:28:28.405Z,27.42
2018-03-04T05:29:00.433Z,27.42
2018-03-04T05:29:32.526Z,27.33
2018-03-04T05:30:04.554Z,27.23
2018-03-04T05:30:36.557Z,27.33
2018-03-04T05:31:08.552Z,27.04
2018-03-04T05:31:40.675Z,27.42
2018-03-04T05:32:12.697Z,27.23
2018-03-04T05:32:44.699Z,27.71
2018-03-04T05:33:16.768Z,27.33
2018-03-04T05:33:48.790Z,27.33
2018-03-04T05:34:20.815Z,27.04
2018-03-04T05:34:52.866Z,27.41
2018-03-04T05:35:24.925Z,27.42
2018-03-04T05:35:56.980Z,27.04
2018-03-04T05:36:29.010Z,27.04
2018-03-04T05:37:01.017Z,27.04
2018-03-04T05:37:33.079Z,27.03
2018-03-04T05:38:05.128Z,27.42
2018-03-04T05:38:37.211Z,27.61
2018-03-04T05:39:09.242Z,27.52
2018-03-04T05:39:41.295Z,26.95
2018-03-04T05:40:13.348Z,27.14
2018-03-04T05:40:45.378Z,27.04
2018-03-04T05:41:17.423Z,27.71
2018-03-04T05:41:49.435Z,27.14
2018-03-04T05:42:21.434Z,27.04
2018-03-04T05:42:53.429Z,27.23
2018-03-04T05:43:25.471Z,27.04
2018-03-04T05:43:57.516Z,27.04
2018-03-04T05:44:29.588Z,27.23
2018-03-04T05:45:01.601Z,27.14
2018-03-04T05:45:33.616Z,27.71
2018-03-04T05:46:05.641Z,27.61
2018-03-04T05:46:37.680Z,27.14
2018-03-04T05:47:09.723Z,27.61
2018-03-04T05:47:41.719Z,27.42
2018-03-04T05:48:13.716Z,27.33
2018-03-04T05:48:45.756Z,27.14
2018-03-04T05:49:17.817Z,27.61
2018-03-04T05:49:49.853Z,27.61
2018-03-04T05:50:21.911Z,27.04
2018-03-04T05:50:53.914Z,27.42
2018-03-04T05:51:25.939Z,27.42
2018-03-04T05:51:57.953Z,27.23
2018-03-04T05:52:29.946Z,27.33
2018-03-04T05:53:01.955Z,27.14
2018-03-04T05:53:33.947Z,27.61
2018-03-04T05:54:05.945Z,27.42
2018-03-04T05:54:37.959Z,27.71
2018-03-04T05:55:10.034Z,27.61
2018-03-04T05:55:42.069Z,27.33
2018-03-04T05:56:14.074Z,27.52
2018-03-04T05:56:46.169Z,27.42
2018-03-04T05:57:19.093Z,27.23
2018-03-04T05:57:51.154Z,27.61
2018-03-04T05:58:23.199Z,27.52
2018-03-04T05:58:55.275Z,27.33
2018-03-04T05:59:27.273Z,27.42
2018-03-04T05:59:59.270Z,27.71
2018-03-04T06:00:31.253Z,27.42
2018-03-04T06:01:03.255Z,27.61
2018-03-04T06:01:35.308Z,27.52
2018-03-04T06:02:07.372Z,27.42
2018-03-04T06:02:39.367Z,27.42
2018-03-04T06:03:11.393Z,27.42
2018-03-04T06:03:43.411Z,27.42
2018-03-04T06:04:15.473Z,27.61
2018-03-04T06:04:47.475Z,27.52
2018-03-04T06:05:19.480Z,27.52
2018-03-04T06:05:51.524Z,27.71
2018-03-04T06:06:23.568Z,27.52
2018-03-04T06:06:55.594Z,27.71
2018-03-04T06:07:27.834Z,27.8
2018-03-04T06:08:00.694Z,27.61
2018-03-04T06:08:32.715Z,27.61
2018-03-04T06:09:04.711Z,27.61
2018-03-04T06:09:36.743Z,27.52
2018-03-04T06:10:08.817Z,27.52
2018-03-04T06:10:40.822Z,27.42
2018-03-04T06:11:12.762Z,27.71
2018-03-04T06:11:44.781Z,27.71
2018-03-04T06:12:16.872Z,27.61
2018-03-04T06:12:48.925Z,27.61
2018-03-04T06:13:20.949Z,27.8
2018-03-04T06:13:53.004Z,27.42
2018-03-04T06:14:25.164Z,27.8
2018-03-04T06:14:57.162Z,27.71
2018-03-04T06:15:29.182Z,27.61
2018-03-04T06:16:01.784Z,27.61
2018-03-04T06:16:33.831Z,27.71
2018-03-04T06:17:05.861Z,27.71
2018-03-04T06:17:37.879Z,27.52
2018-03-04T06:18:09.889Z,27.61
2018-03-04T06:18:41.876Z,27.8
2018-03-04T06:19:13.929Z,27.61
2018-03-04T06:19:45.955Z,27.71
2018-03-04T06:20:17.938Z,27.71
2018-03-04T06:20:49.982Z,27.8
2018-03-04T06:21:21.997Z,27.42
2018-03-04T06:21:54.016Z,27.52
2018-03-04T06:22:26.148Z,27.8
2018-03-04T06:22:58.179Z,27.71
2018-03-04T06:23:30.265Z,27.8
2018-03-04T06:24:02.285Z,27.71
2018-03-04T06:24:34.310Z,27.61
2018-03-04T06:25:06.343Z,27.61
2018-03-04T06:25:38.335Z,27.61
2018-03-04T06:26:10.507Z,27.8
2018-03-04T06:26:42.578Z,27.61
2018-03-04T06:27:14.627Z,27.8
2018-03-04T06:27:46.613Z,27.71
2018-03-04T06:28:18.651Z,27.8
2018-03-04T06:28:50.666Z,27.8
2018-03-04T06:29:22.701Z,27.61
2018-03-04T06:29:54.761Z,27.71
2018-03-04T06:30:26.749Z,27.71
2018-03-04T06:30:58.765Z,27.61
2018-03-04T06:31:30.855Z,27.61
2018-03-04T06:32:03.504Z,27.71
2018-03-04T06:32:35.587Z,27.71
2018-03-04T06:33:07.755Z,27.71
2018-03-04T06:33:39.790Z,27.9
2018-03-04T06:34:11.824Z,27.71
2018-03-04T06:34:43.884Z,27.61
2018-03-04T06:35:15.948Z,27.71
2018-03-04T06:35:47.952Z,27.71
2018-03-04T06:36:19.996Z,27.71
2018-03-04T06:36:52.033Z,27.8
2018-03-04T06:37:24.050Z,27.61
2018-03-04T06:37:56.047Z,27.71
2018-03-04T06:38:28.078Z,27.61
2018-03-04T06:39:00.132Z,27.8
2018-03-04T06:39:32.158Z,27.71
2018-03-04T06:40:04.192Z,27.52
2018-03-04T06:40:36.172Z,27.8
2018-03-04T06:41:08.175Z,27.61
2018-03-04T06:41:40.241Z,27.71
2018-03-04T06:42:12.282Z,27.71
2018-03-04T06:42:44.402Z,27.71
2018-03-04T06:43:16.532Z,27.71
2018-03-04T06:43:48.587Z,27.71
2018-03-04T06:44:20.584Z,27.71
2018-03-04T06:44:52.629Z,27.71
2018-03-04T06:45:24.700Z,27.71
2018-03-04T06:45:56.736Z,27.52
2018-03-04T06:46:28.751Z,27.8
2018-03-04T06:47:00.826Z,27.8
2018-03-04T06:47:32.857Z,27.71
2018-03-04T06:48:04.908Z,27.8
2018-03-04T06:48:36.926Z,27.52
2018-03-04T06:49:08.927Z,27.61
2018-03-04T06:49:40.951Z,27.52
2018-03-04T06:50:12.972Z,27.61
2018-03-04T06:50:45.069Z,27.8
2018-03-04T06:51:17.108Z,27.8
2018-03-04T06:51:49.136Z,27.8
2018-03-04T06:52:22.016Z,27.61
2018-03-04T06:52:54.045Z,27.71
2018-03-04T06:53:26.049Z,27.9